createdAt,value
2022-08-29T00:00:29.871Z,100627.06
2022-08-29T00:03:02.601Z,100618.22
2022-08-29T00:05:40.103Z,100622.34
2022-08-29T00:08:11.240Z,100628.97
2022-08-29T00:10:43.060Z,100624.63
2022-08-29T00:13:13.557Z,100628.66
2022-08-29T00:15:45.154Z,100627.06
2022-08-29T00:18:19.714Z,100626.19
2022-08-29T00:20:51.101Z,100628.50
2022-08-29T00:23:20.215Z,100625.41
2022-08-29T00:25:48.562Z,100624.03
2022-08-29T00:28:17.185Z,100634.19
2022-08-29T00:30:45.503Z,100627.16
2022-08-29T00:33:13.470Z,100638.09
2022-08-29T00:35:44.071Z,100637.38
2022-08-29T00:38:14.451Z,100636.09
2022-08-29T00:40:51.229Z,100637.00
2022-08-29T00:43:30.503Z,100644.97
2022-08-29T00:46:19.648Z,100645.84
2022-08-29T00:48:54.671Z,100648.78
2022-08-29T00:51:23.986Z,100650.50
2022-08-29T00:53:59.856Z,100635.88
2022-08-29T00:56:29.788Z,100639.34
2022-08-29T00:59:13.134Z,100626.56
2022-08-29T01:01:41.197Z,100637.28
2022-08-29T01:04:15.845Z,100633.69
2022-08-29T01:06:54.022Z,100628.19
2022-08-29T01:09:24.590Z,100641.59
2022-08-29T01:12:12.081Z,100640.44
2022-08-29T01:14:48.131Z,100642.06
2022-08-29T01:17:25.934Z,100645.84
2022-08-29T01:20:25.214Z,100650.59
2022-08-29T01:23:02.282Z,100661.75
2022-08-29T01:25:36.783Z,100665.84
2022-08-29T01:28:33.070Z,100653.19
2022-08-29T01:31:14.088Z,100649.63
2022-08-29T01:34:00.359Z,100642.72
2022-08-29T01:37:07.770Z,100641.19
2022-08-29T01:39:39.755Z,100636.31
2022-08-29T01:42:17.527Z,100637.44
2022-08-29T01:45:00.823Z,100649.75
2022-08-29T01:47:35.325Z,100645.41
2022-08-29T01:50:31.243Z,100657.41
2022-08-29T01:53:01.092Z,100658.63
2022-08-29T01:55:28.872Z,100662.06
2022-08-29T01:57:56.783Z,100658.50
2022-08-29T02:00:24.790Z,100658.63
2022-08-29T02:02:52.836Z,100657.84
2022-08-29T02:05:23.556Z,100657.13
2022-08-29T02:07:51.763Z,100656.13
2022-08-29T02:10:20.326Z,100650.94
2022-08-29T02:12:48.545Z,100659.06
2022-08-29T02:15:19.040Z,100664.56
2022-08-29T02:17:49.527Z,100666.28
2022-08-29T02:20:19.327Z,100668.47
2022-08-29T02:22:47.101Z,100679.16
2022-08-29T02:25:34.763Z,100674.72
2022-08-29T02:28:03.639Z,100669.66
2022-08-29T02:30:31.502Z,100665.22
2022-08-29T02:33:00.002Z,100667.81
2022-08-29T02:35:35.065Z,100663.63
2022-08-29T02:38:04.759Z,100659.59
2022-08-29T02:40:33.623Z,100672.03
2022-08-29T02:43:05.944Z,100670.53
2022-08-29T02:45:37.598Z,100665.13
2022-08-29T02:48:06.042Z,100671.91
2022-08-29T02:50:37.206Z,100661.22
2022-08-29T02:53:06.955Z,100663.38
2022-08-29T02:55:35.236Z,100680.44
2022-08-29T02:58:03.439Z,100682.50
2022-08-29T03:00:33.708Z,100675.59
2022-08-29T03:03:02.791Z,100678.38
2022-08-29T03:05:35.001Z,100682.84
2022-08-29T03:08:11.733Z,100681.00
2022-08-29T03:10:40.823Z,100677.63
2022-08-29T03:13:11.571Z,100671.16
2022-08-29T03:15:40.885Z,100674.94
2022-08-29T03:18:09.031Z,100673.22
2022-08-29T03:20:38.375Z,100668.88
2022-08-29T03:23:09.858Z,100675.38
2022-08-29T03:25:40.254Z,100670.06
2022-08-29T03:28:10.320Z,100666.59
2022-08-29T03:30:38.921Z,100664.09
2022-08-29T03:33:09.911Z,100663.13
2022-08-29T03:35:40.607Z,100661.38
2022-08-29T03:38:09.589Z,100660.63
2022-08-29T03:40:42.663Z,100653.59
2022-08-29T03:43:11.616Z,100668.06
2022-08-29T03:45:39.883Z,100659.44
2022-08-29T03:48:08.266Z,100664.16
2022-08-29T03:50:37.465Z,100666.31
2022-08-29T03:53:05.444Z,100665.44
2022-08-29T03:55:34.521Z,100668.25
2022-08-29T03:58:03.799Z,100674.31
2022-08-29T04:00:33.047Z,100672.69
2022-08-29T04:03:02.072Z,100676.16
2022-08-29T04:05:30.025Z,100672.69
2022-08-29T04:08:00.346Z,100668.38
2022-08-29T04:10:33.505Z,100671.28
2022-08-29T04:13:03.708Z,100669.66
2022-08-29T04:15:34.398Z,100668.13
2022-08-29T04:18:08.240Z,100669.19
2022-08-29T04:20:44.995Z,100668.44
2022-08-29T04:23:14.707Z,100669.50
2022-08-29T04:25:44.723Z,100672.19
2022-08-29T04:28:15.313Z,100670.59
2022-08-29T04:30:52.733Z,100683.09
2022-08-29T04:33:25.522Z,100680.69
2022-08-29T04:35:53.907Z,100689.84
2022-08-29T04:38:23.120Z,100685.53
2022-08-29T04:40:50.954Z,100681.13
2022-08-29T04:43:20.492Z,100679.03
2022-08-29T04:45:56.360Z,100688.28
2022-08-29T04:48:24.817Z,100680.88
2022-08-29T04:51:01.581Z,100689.06
2022-08-29T04:53:31.010Z,100675.31
2022-08-29T04:56:05.149Z,100688.88
2022-08-29T04:58:41.246Z,100680.44
2022-08-29T05:01:17.910Z,100695.34
2022-08-29T05:03:46.433Z,100694.78
2022-08-29T05:06:22.504Z,100702.00
2022-08-29T05:08:59.081Z,100703.06
2022-08-29T05:11:31.805Z,100707.69
2022-08-29T05:14:01.960Z,100700.34
2022-08-29T05:16:31.864Z,100710.66
2022-08-29T05:18:59.847Z,100702.94
2022-08-29T05:21:35.268Z,100709.56
2022-08-29T05:24:10.623Z,100711.22
2022-08-29T05:26:45.117Z,100724.13
2022-08-29T05:29:14.413Z,100708.88
2022-08-29T05:31:44.504Z,100714.28
2022-08-29T05:34:34.034Z,100718.72
2022-08-29T05:37:06.955Z,100721.50
2022-08-29T05:39:38.551Z,100718.72
2022-08-29T05:42:09.103Z,100711.50
2022-08-29T05:44:39.367Z,100715.84
2022-08-29T05:47:11.204Z,100715.53
2022-08-29T05:49:42.075Z,100710.81
2022-08-29T05:52:12.695Z,100718.50
2022-08-29T05:54:42.636Z,100723.22
2022-08-29T05:57:18.761Z,100730.38
2022-08-29T05:59:53.355Z,100719.94
2022-08-29T06:02:23.988Z,100725.25
2022-08-29T06:04:52.469Z,100724.16
2022-08-29T06:07:21.588Z,100733.91
2022-08-29T06:09:53.136Z,100729.25
2022-08-29T06:12:25.628Z,100730.38
2022-08-29T06:14:55.134Z,100737.97
2022-08-29T06:17:23.564Z,100730.53
2022-08-29T06:19:52.804Z,100736.69
2022-08-29T06:22:22.399Z,100734.63
2022-08-29T06:24:57.719Z,100732.59
2022-08-29T06:27:26.624Z,100736.28
2022-08-29T06:29:54.635Z,100737.50
2022-08-29T06:32:23.690Z,100744.97
2022-08-29T06:34:51.581Z,100745.34
2022-08-29T06:37:19.488Z,100747.41
2022-08-29T06:39:49.018Z,100746.13
2022-08-29T06:42:19.036Z,100752.94
2022-08-29T06:44:51.921Z,100753.16
2022-08-29T06:47:21.677Z,100752.75
2022-08-29T06:49:49.616Z,100763.88
2022-08-29T06:52:17.764Z,100766.72
2022-08-29T06:54:45.710Z,100763.66
2022-08-29T06:57:14.539Z,100770.50
2022-08-29T06:59:42.680Z,100764.66
2022-08-29T07:02:10.675Z,100772.16
2022-08-29T07:04:38.601Z,100774.28
2022-08-29T07:07:12.858Z,100768.22
2022-08-29T07:09:41.629Z,100769.63
2022-08-29T07:12:09.756Z,100761.94
2022-08-29T07:14:37.903Z,100768.63
2022-08-29T07:17:06.744Z,100767.09
2022-08-29T07:19:35.772Z,100761.22
2022-08-29T07:22:07.216Z,100758.84
2022-08-29T07:24:36.590Z,100761.00
2022-08-29T07:27:04.737Z,100766.72
2022-08-29T07:29:33.031Z,100767.75
2022-08-29T07:32:03.132Z,100772.47
2022-08-29T07:34:31.352Z,100770.94
2022-08-29T07:36:59.562Z,100778.44
2022-08-29T07:39:27.675Z,100766.41
2022-08-29T07:41:55.520Z,100775.44
2022-08-29T07:44:24.551Z,100765.75
2022-08-29T07:47:00.536Z,100770.66
2022-08-29T07:49:40.609Z,100766.47
2022-08-29T07:52:09.629Z,100765.50
2022-08-29T07:54:39.424Z,100764.16
2022-08-29T07:57:07.393Z,100765.28
2022-08-29T07:59:35.646Z,100751.47
2022-08-29T08:02:03.864Z,100762.84
2022-08-29T08:04:31.686Z,100766.56
2022-08-29T08:07:00.730Z,100764.84
2022-08-29T08:09:28.773Z,100762.97
2022-08-29T08:11:57.585Z,100763.94
2022-08-29T08:14:34.772Z,100765.19
2022-08-29T08:17:04.076Z,100771.94
2022-08-29T08:19:31.958Z,100762.56
2022-08-29T08:22:00.986Z,100764.91
2022-08-29T08:24:30.395Z,100764.41
2022-08-29T08:26:59.628Z,100772.81
2022-08-29T08:29:27.921Z,100776.00
2022-08-29T08:31:59.931Z,100775.63
2022-08-29T08:34:29.459Z,100773.09
2022-08-29T08:36:58.700Z,100771.84
2022-08-29T08:39:27.215Z,100780.94
2022-08-29T08:42:11.018Z,100769.91
2022-08-29T08:45:10.885Z,100772.09
2022-08-29T08:48:20.624Z,100772.22
2022-08-29T08:51:03.810Z,100768.56
2022-08-29T08:53:43.696Z,100762.94
2022-08-29T08:56:37.220Z,100772.88
2022-08-29T08:59:28.644Z,100770.75
2022-08-29T09:02:39.402Z,100768.19
2022-08-29T09:05:29.098Z,100763.97
2022-08-29T09:08:44.595Z,100764.41
2022-08-29T09:11:51.354Z,100782.03
2022-08-29T09:14:55.218Z,100776.09
2022-08-29T09:17:37.723Z,100777.53
2022-08-29T09:20:30.071Z,100775.28
2022-08-29T09:23:31.714Z,100767.56
2022-08-29T09:25:59.622Z,100764.84
2022-08-29T09:28:27.571Z,100776.22
2022-08-29T09:31:27.652Z,100770.19
2022-08-29T09:34:11.720Z,100761.75
2022-08-29T09:36:52.072Z,100756.75
2022-08-29T09:39:21.642Z,100761.63
2022-08-29T09:41:57.514Z,100751.34
2022-08-29T09:44:34.171Z,100763.41
2022-08-29T09:47:13.518Z,100759.13
2022-08-29T09:50:17.851Z,100760.59
2022-08-29T09:52:59.685Z,100766.59
2022-08-29T09:55:46.056Z,100757.13
2022-08-29T09:58:19.102Z,100766.03
2022-08-29T10:01:19.305Z,100758.44
2022-08-29T10:04:05.454Z,100753.41
2022-08-29T10:06:45.225Z,100760.16
2022-08-29T10:09:35.476Z,100755.13
2022-08-29T10:12:15.422Z,100746.53
2022-08-29T10:14:56.448Z,100744.38
2022-08-29T10:17:57.140Z,100751.41
2022-08-29T10:20:52.612Z,100729.72
2022-08-29T10:23:46.222Z,100751.69
2022-08-29T10:26:33.816Z,100741.50
2022-08-29T10:29:32.333Z,100743.97
2022-08-29T10:32:51.798Z,100746.41
2022-08-29T10:35:30.998Z,100744.97
2022-08-29T10:38:34.391Z,100731.59
2022-08-29T10:41:29.684Z,100733.59
2022-08-29T10:44:36.764Z,100735.91
2022-08-29T10:47:39.201Z,100731.84
2022-08-29T10:50:43.987Z,100732.28
2022-08-29T10:53:27.627Z,100715.19
2022-08-29T10:56:24.478Z,100720.16
2022-08-29T10:59:28.907Z,100727.06
2022-08-29T11:02:23.833Z,100709.38
2022-08-29T11:04:59.990Z,100716.13
2022-08-29T11:07:40.593Z,100711.78
2022-08-29T11:10:27.160Z,100717.81
2022-08-29T11:13:10.546Z,100715.31
2022-08-29T11:15:48.993Z,100707.69
2022-08-29T11:18:47.186Z,100706.38
2022-08-29T11:21:24.818Z,100697.59
2022-08-29T11:23:58.572Z,100685.81
2022-08-29T11:27:03.057Z,100691.91
2022-08-29T11:29:49.202Z,100694.91
2022-08-29T11:32:43.517Z,100695.28
2022-08-29T11:35:23.332Z,100687.81
2022-08-29T11:38:12.870Z,100681.03
2022-08-29T11:41:28.078Z,100683.31
2022-08-29T11:44:10.467Z,100680.28
2022-08-29T11:46:53.266Z,100656.69
2022-08-29T11:49:32.538Z,100670.13
2022-08-29T11:52:12.830Z,100660.28
2022-08-29T11:54:45.396Z,100671.75
2022-08-29T11:57:13.369Z,100663.94
2022-08-29T11:59:57.051Z,100662.16
2022-08-29T12:02:28.499Z,100658.06
2022-08-29T12:05:07.636Z,100648.53
2022-08-29T12:07:37.439Z,100645.19
2022-08-29T12:10:12.941Z,100646.44
2022-08-29T12:12:47.546Z,100648.72
2022-08-29T12:15:27.604Z,100654.56
2022-08-29T12:18:13.444Z,100662.41
2022-08-29T12:20:49.010Z,100654.06
2022-08-29T12:23:49.251Z,100648.25
2022-08-29T12:26:47.062Z,100642.63
2022-08-29T12:29:41.082Z,100639.88
2022-08-29T12:32:48.200Z,100640.25
2022-08-29T12:35:48.867Z,100633.78
2022-08-29T12:39:24.028Z,100637.00
2022-08-29T12:42:07.482Z,100635.81
2022-08-29T12:44:39.824Z,100621.13
2022-08-29T12:47:28.823Z,100619.78
2022-08-29T12:50:01.865Z,100618.13
2022-08-29T12:52:38.098Z,100610.59
2022-08-29T12:55:42.353Z,100611.81
2022-08-29T12:58:14.252Z,100609.78
2022-08-29T13:00:53.196Z,100592.75
2022-08-29T13:03:22.654Z,100594.44
2022-08-29T13:05:51.233Z,100591.53
2022-08-29T13:08:37.600Z,100590.19
2022-08-29T13:11:11.575Z,100581.00
2022-08-29T13:13:41.945Z,100593.16
2022-08-29T13:16:29.865Z,100591.44
2022-08-29T13:19:11.000Z,100575.19
2022-08-29T13:21:41.095Z,100573.00
2022-08-29T13:24:21.596Z,100577.81
2022-08-29T13:27:05.330Z,100585.16
2022-08-29T13:29:39.921Z,100581.91
2022-08-29T13:32:17.845Z,100579.53
2022-08-29T13:35:20.863Z,100574.91
2022-08-29T13:38:11.526Z,100577.47
2022-08-29T13:40:55.449Z,100578.16
2022-08-29T13:43:43.338Z,100578.69
2022-08-29T13:46:26.239Z,100578.34
2022-08-29T13:49:06.046Z,100568.94
2022-08-29T13:51:34.382Z,100560.03
2022-08-29T13:54:02.503Z,100561.94
2022-08-29T13:56:33.755Z,100560.78
2022-08-29T13:59:03.310Z,100565.75
2022-08-29T14:02:08.211Z,100563.00
2022-08-29T14:04:37.245Z,100553.56
2022-08-29T14:07:09.492Z,100544.84
2022-08-29T14:09:45.525Z,100544.53
2022-08-29T14:12:17.057Z,100545.19
2022-08-29T14:14:46.114Z,100548.81
2022-08-29T14:17:18.878Z,100538.72
2022-08-29T14:19:47.114Z,100548.13
2022-08-29T14:22:15.436Z,100540.59
2022-08-29T14:24:51.866Z,100541.78
2022-08-29T14:27:33.159Z,100537.50
2022-08-29T14:30:01.659Z,100530.47
2022-08-29T14:32:30.002Z,100525.50
2022-08-29T14:34:58.621Z,100520.22
2022-08-29T14:37:26.913Z,100506.34
2022-08-29T14:39:56.608Z,100510.63
2022-08-29T14:42:26.601Z,100511.63
2022-08-29T14:44:55.045Z,100513.38
2022-08-29T14:47:24.068Z,100506.00
2022-08-29T14:49:52.532Z,100503.59
2022-08-29T14:52:20.482Z,100495.19
2022-08-29T14:54:49.312Z,100500.69
2022-08-29T14:57:18.334Z,100498.44
2022-08-29T14:59:48.122Z,100492.28
2022-08-29T15:02:16.485Z,100499.13
2022-08-29T15:04:46.529Z,100501.84
2022-08-29T15:07:15.881Z,100478.94
2022-08-29T15:09:44.648Z,100490.91
2022-08-29T15:12:15.658Z,100492.44
2022-08-29T15:14:46.105Z,100489.00
2022-08-29T15:17:15.355Z,100484.38
2022-08-29T15:22:53.763Z,100495.34
2022-08-29T15:25:35.936Z,100491.06
2022-08-29T15:28:17.483Z,100486.47
2022-08-29T15:30:53.976Z,100482.53
2022-08-29T15:33:24.220Z,100481.34
2022-08-29T15:35:53.873Z,100474.97
2022-08-29T15:38:22.860Z,100479.25
2022-08-29T15:40:51.941Z,100470.84
2022-08-29T15:43:20.069Z,100471.69
2022-08-29T15:45:48.979Z,100471.69
2022-08-29T15:48:18.121Z,100474.81
2022-08-29T15:50:47.084Z,100478.41
2022-08-29T15:53:15.072Z,100475.31
2022-08-29T15:55:44.503Z,100463.47
2022-08-29T15:58:12.756Z,100468.28
2022-08-29T16:00:41.164Z,100466.41
2022-08-29T16:03:10.179Z,100474.44
2022-08-29T16:05:40.335Z,100469.66
2022-08-29T16:08:16.409Z,100469.47
2022-08-29T16:10:45.245Z,100462.81
2022-08-29T16:13:13.193Z,100453.91
2022-08-29T16:15:44.044Z,100464.69
2022-08-29T16:18:12.222Z,100455.13
2022-08-29T16:20:43.085Z,100452.56
2022-08-29T16:23:12.047Z,100447.94
2022-08-29T16:25:44.160Z,100450.28
2022-08-29T16:28:13.040Z,100441.59
2022-08-29T16:30:44.359Z,100445.00
2022-08-29T16:33:14.248Z,100451.53
2022-08-29T16:35:42.622Z,100433.16
2022-08-29T16:38:14.194Z,100448.13
2022-08-29T16:40:42.323Z,100444.81
2022-08-29T16:43:10.394Z,100443.63
2022-08-29T16:45:39.677Z,100441.75
2022-08-29T16:48:14.297Z,100440.19
2022-08-29T16:50:44.052Z,100439.88
2022-08-29T16:53:14.115Z,100438.81
2022-08-29T16:55:43.596Z,100438.50
2022-08-29T16:58:30.681Z,100429.63
2022-08-29T17:00:59.111Z,100432.69
2022-08-29T17:03:27.152Z,100425.00
2022-08-29T17:05:56.555Z,100427.53
2022-08-29T17:08:25.026Z,100429.09
2022-08-29T17:10:52.927Z,100436.47
2022-08-29T17:13:20.918Z,100437.00
2022-08-29T17:15:49.434Z,100438.22
2022-08-29T17:18:19.553Z,100436.00
2022-08-29T17:20:49.231Z,100435.13
2022-08-29T17:23:19.303Z,100433.06
2022-08-29T17:25:48.112Z,100434.28
2022-08-29T17:28:18.665Z,100440.94
2022-08-29T17:30:49.287Z,100428.81
2022-08-29T17:33:20.350Z,100428.09
2022-08-29T17:35:49.899Z,100434.63
2022-08-29T17:38:19.840Z,100440.94
2022-08-29T17:40:49.550Z,100437.53
2022-08-29T17:43:20.660Z,100442.28
2022-08-29T17:45:49.714Z,100451.72
2022-08-29T17:48:20.759Z,100434.94
2022-08-29T17:50:51.345Z,100438.34
2022-08-29T17:53:21.453Z,100441.44
2022-08-29T17:55:51.241Z,100438.00
2022-08-29T17:58:22.104Z,100437.31
2022-08-29T18:00:50.627Z,100446.22
2022-08-29T18:03:19.869Z,100449.47
2022-08-29T18:05:50.908Z,100459.69
2022-08-29T18:08:19.206Z,100449.25
2022-08-29T18:10:48.320Z,100459.81
2022-08-29T18:13:21.018Z,100458.13
2022-08-29T18:15:52.590Z,100461.84
2022-08-29T18:18:21.654Z,100455.97
2022-08-29T18:20:50.197Z,100461.41
2022-08-29T18:23:20.400Z,100457.94
2022-08-29T18:25:49.063Z,100469.63
2022-08-29T18:28:17.951Z,100472.50
2022-08-29T18:30:48.596Z,100469.69
2022-08-29T18:33:17.104Z,100472.56
2022-08-29T18:35:46.233Z,100466.03
2022-08-29T18:38:17.515Z,100483.59
2022-08-29T18:40:53.764Z,100484.22
2022-08-29T18:43:22.821Z,100472.00
2022-08-29T18:45:51.091Z,100483.22
2022-08-29T18:48:19.578Z,100474.75
2022-08-29T18:50:48.754Z,100479.66
2022-08-29T18:53:21.454Z,100494.16
2022-08-29T18:55:52.665Z,100498.53
2022-08-29T18:58:28.322Z,100499.78
2022-08-29T19:00:58.268Z,100502.56
2022-08-29T19:03:26.866Z,100507.94
2022-08-29T19:05:54.982Z,100504.09
2022-08-29T19:08:25.201Z,100508.13
2022-08-29T19:10:55.329Z,100507.91
2022-08-29T19:13:25.203Z,100512.38
2022-08-29T19:15:59.659Z,100513.97
2022-08-29T19:18:28.284Z,100519.47
2022-08-29T19:21:02.942Z,100526.63
2022-08-29T19:23:39.777Z,100517.03
2022-08-29T19:26:16.153Z,100525.53
2022-08-29T19:28:45.223Z,100521.22
2022-08-29T19:31:17.320Z,100532.31
2022-08-29T19:33:46.662Z,100533.78
2022-08-29T19:36:15.524Z,100513.97
2022-08-29T19:38:44.590Z,100524.28
2022-08-29T19:41:13.207Z,100512.66
2022-08-29T19:43:42.371Z,100526.28
2022-08-29T19:46:18.084Z,100533.47
2022-08-29T19:48:50.970Z,100543.66
2022-08-29T19:51:24.461Z,100517.31
2022-08-29T19:53:57.339Z,100524.91
2022-08-29T19:56:26.961Z,100553.44
2022-08-29T19:58:57.276Z,100553.59
2022-08-29T20:01:26.618Z,100544.59
2022-08-29T20:03:55.547Z,100555.91
2022-08-29T20:06:24.481Z,100553.47
2022-08-29T20:08:53.871Z,100558.50
2022-08-29T20:11:26.765Z,100556.09
2022-08-29T20:13:59.735Z,100562.13
2022-08-29T20:16:33.978Z,100572.31
2022-08-29T20:19:05.354Z,100550.97
2022-08-29T20:21:35.911Z,100558.13
2022-08-29T20:24:05.670Z,100568.16
2022-08-29T20:26:38.552Z,100562.16
2022-08-29T20:29:10.779Z,100567.03
2022-08-29T20:31:40.624Z,100568.72
2022-08-29T20:34:09.649Z,100576.47
2022-08-29T20:37:00.016Z,100573.59
2022-08-29T20:39:28.367Z,100578.19
2022-08-29T20:42:00.315Z,100569.75
2022-08-29T20:44:33.964Z,100572.91
2022-08-29T20:47:03.020Z,100578.66
2022-08-29T20:49:32.095Z,100575.47
2022-08-29T20:52:03.138Z,100577.47
2022-08-29T20:54:32.518Z,100578.63
2022-08-29T20:57:01.069Z,100578.19
2022-08-29T20:59:34.471Z,100588.06
2022-08-29T21:02:05.169Z,100588.06
2022-08-29T21:04:52.090Z,100578.75
2022-08-29T21:07:21.393Z,100592.47
2022-08-29T21:09:51.055Z,100585.16
2022-08-29T21:12:27.499Z,100590.00
2022-08-29T21:14:56.278Z,100575.00
2022-08-29T21:17:25.861Z,100575.81
2022-08-29T21:19:53.706Z,100592.59
2022-08-29T21:22:24.961Z,100585.41
2022-08-29T21:24:58.321Z,100587.25
2022-08-29T21:27:26.891Z,100580.94
2022-08-29T21:29:58.707Z,100583.53
2022-08-29T21:32:27.858Z,100595.53
2022-08-29T21:34:56.597Z,100596.94
2022-08-29T21:37:25.341Z,100594.03
2022-08-29T21:39:53.397Z,100598.44
2022-08-29T21:42:21.825Z,100598.13
2022-08-29T21:44:50.953Z,100601.03
2022-08-29T21:47:21.610Z,100600.44
2022-08-29T21:49:52.073Z,100592.31
2022-08-29T21:52:20.766Z,100600.06
2022-08-29T21:54:53.992Z,100592.19
2022-08-29T21:57:41.640Z,100603.59
2022-08-29T22:00:11.646Z,100611.75
2022-08-29T22:02:42.320Z,100617.56
2022-08-29T22:05:10.854Z,100616.72
2022-08-29T22:07:40.854Z,100613.38
2022-08-29T22:10:15.287Z,100603.53
2022-08-29T22:12:43.455Z,100619.94
2022-08-29T22:15:31.267Z,100621.94
2022-08-29T22:17:59.150Z,100619.75
2022-08-29T22:20:28.350Z,100615.44
2022-08-29T22:22:56.599Z,100622.84
2022-08-29T22:25:26.193Z,100622.72
2022-08-29T22:27:55.523Z,100621.84
2022-08-29T22:30:32.102Z,100619.84
2022-08-29T22:33:01.762Z,100626.19
2022-08-29T22:35:30.199Z,100618.75
2022-08-29T22:37:59.150Z,100625.19
2022-08-29T22:40:27.841Z,100617.69
2022-08-29T22:42:58.466Z,100620.13
2022-08-29T22:45:26.814Z,100629.50
2022-08-29T22:47:55.202Z,100618.88
2022-08-29T22:50:25.101Z,100620.75
2022-08-29T22:52:59.326Z,100624.47
2022-08-29T22:57:57.557Z,100625.94
2022-08-29T23:00:27.168Z,100607.16
2022-08-29T23:02:57.076Z,100611.84
2022-08-29T23:05:26.481Z,100609.13
2022-08-29T23:07:54.343Z,100593.97
2022-08-29T23:10:24.165Z,100603.22
2022-08-29T23:12:53.091Z,100609.03
2022-08-29T23:15:20.925Z,100598.22
2022-08-29T23:17:49.119Z,100588.28
2022-08-29T23:20:20.304Z,100593.69
2022-08-29T23:22:49.322Z,100582.09
2022-08-29T23:25:18.065Z,100589.69
2022-08-29T23:27:46.372Z,100599.09
2022-08-29T23:30:16.759Z,100590.75
2022-08-29T23:32:45.634Z,100599.97
2022-08-29T23:35:15.245Z,100596.69
2022-08-29T23:37:43.621Z,100606.53
2022-08-29T23:40:12.390Z,100599.50
2022-08-29T23:42:41.402Z,100590.28
2022-08-29T23:45:10.999Z,100608.88
2022-08-29T23:47:38.891Z,100596.56
2022-08-29T23:50:09.456Z,100595.94
2022-08-29T23:52:38.808Z,100603.81
2022-08-29T23:55:08.011Z,100605.06
2022-08-29T23:57:37.256Z,100612.59
